createdAt,value
2023-03-22T00:00:03.057Z,1007.91
2023-03-22T00:01:03.032Z,1007.90
2023-03-22T00:02:03.023Z,1007.86
2023-03-22T00:03:03.115Z,1007.85
2023-03-22T00:04:03.024Z,1007.83
2023-03-22T00:05:03.004Z,1007.79
2023-03-22T00:06:02.991Z,1007.84
2023-03-22T00:07:02.985Z,1007.87
2023-03-22T00:08:02.975Z,1007.80
2023-03-22T00:09:02.969Z,1007.83
2023-03-22T00:10:02.976Z,1007.79
2023-03-22T00:11:02.954Z,1007.81
2023-03-22T00:12:02.943Z,1007.77
2023-03-22T00:13:02.939Z,1007.78
2023-03-22T00:14:02.957Z,1007.76
2023-03-22T00:15:02.918Z,1007.80
2023-03-22T00:16:03.039Z,1007.82
2023-03-22T00:17:02.907Z,1007.80
2023-03-22T00:18:02.894Z,1007.76
2023-03-22T00:19:02.896Z,1007.78
2023-03-22T00:20:02.881Z,1007.77
2023-03-22T00:21:02.868Z,1007.77
2023-03-22T00:22:02.857Z,1007.78
2023-03-22T00:23:02.852Z,1007.79
2023-03-22T00:24:02.845Z,1007.78
2023-03-22T00:25:02.839Z,1007.79
2023-03-22T00:26:02.838Z,1007.74
2023-03-22T00:27:02.819Z,1007.71
2023-03-22T00:28:02.814Z,1007.72
2023-03-22T00:29:02.810Z,1007.68
2023-03-22T00:30:02.799Z,1007.67
2023-03-22T00:31:02.863Z,1007.67
2023-03-22T00:32:02.811Z,1007.65
2023-03-22T00:33:02.862Z,1007.64
2023-03-22T00:34:02.765Z,1007.60
2023-03-22T00:35:02.757Z,1007.63
2023-03-22T00:36:02.755Z,1007.61
2023-03-22T00:37:02.742Z,1007.53
2023-03-22T00:38:02.741Z,1007.53
2023-03-22T00:39:02.742Z,1007.56
2023-03-22T00:40:02.720Z,1007.53
2023-03-22T00:41:02.709Z,1007.50
2023-03-22T00:42:02.706Z,1007.51
2023-03-22T00:43:02.692Z,1007.55
2023-03-22T00:44:02.685Z,1007.53
2023-03-22T00:45:02.684Z,1007.52
2023-03-22T00:46:02.734Z,1007.54
2023-03-22T00:47:02.663Z,1007.55
2023-03-22T00:48:02.673Z,1007.54
2023-03-22T00:49:02.714Z,1007.52
2023-03-22T00:50:02.636Z,1007.51
2023-03-22T00:51:02.624Z,1007.51
2023-03-22T00:52:02.621Z,1007.53
2023-03-22T00:53:02.634Z,1007.53
2023-03-22T00:54:02.605Z,1007.57
2023-03-22T00:55:02.609Z,1007.54
2023-03-22T00:56:02.591Z,1007.51
2023-03-22T00:57:02.578Z,1007.53
2023-03-22T00:58:02.587Z,1007.57
2023-03-22T00:59:02.557Z,1007.55
2023-03-22T01:00:02.554Z,1007.60
2023-03-22T01:01:02.584Z,1007.56
2023-03-22T01:02:02.537Z,1007.53
2023-03-22T01:03:02.531Z,1007.56
2023-03-22T01:04:02.520Z,1007.55
2023-03-22T01:05:02.511Z,1007.50
2023-03-22T01:06:02.504Z,1007.51
2023-03-22T01:07:02.567Z,1007.50
2023-03-22T01:08:02.483Z,1007.46
2023-03-22T01:09:02.474Z,1007.41
2023-03-22T01:10:02.465Z,1007.44
2023-03-22T01:11:02.455Z,1007.38
2023-03-22T01:12:02.448Z,1007.38
2023-03-22T01:13:02.524Z,1007.41
2023-03-22T01:14:02.436Z,1007.40
2023-03-22T01:15:02.442Z,1007.39
2023-03-22T01:16:02.477Z,1007.38
2023-03-22T01:17:02.410Z,1007.37
2023-03-22T01:18:02.408Z,1007.32
2023-03-22T01:19:02.389Z,1007.32
2023-03-22T01:20:02.387Z,1007.31
2023-03-22T01:21:02.384Z,1007.31
2023-03-22T01:22:02.364Z,1007.30
2023-03-22T01:23:02.355Z,1007.29
2023-03-22T01:24:02.359Z,1007.30
2023-03-22T01:25:02.337Z,1007.30
2023-03-22T01:26:02.332Z,1007.28
2023-03-22T01:27:02.333Z,1007.28
2023-03-22T01:28:02.330Z,1007.27
2023-03-22T01:29:02.307Z,1007.26
2023-03-22T01:30:02.294Z,1007.20
2023-03-22T01:31:02.329Z,1007.24
2023-03-22T01:32:02.285Z,1007.20
2023-03-22T01:33:02.299Z,1007.24
2023-03-22T01:34:02.265Z,1007.24
2023-03-22T01:35:02.251Z,1007.24
2023-03-22T01:36:02.286Z,1007.22
2023-03-22T01:37:02.243Z,1007.18
2023-03-22T01:38:02.241Z,1007.18
2023-03-22T01:39:02.268Z,1007.17
2023-03-22T01:40:02.213Z,1007.12
2023-03-22T01:41:02.205Z,1007.11
2023-03-22T01:42:02.196Z,1007.08
2023-03-22T01:43:02.192Z,1007.09
2023-03-22T01:44:02.180Z,1007.11
2023-03-22T01:45:02.202Z,1007.08
2023-03-22T01:46:02.233Z,1007.08
2023-03-22T01:47:02.161Z,1007.03
2023-03-22T01:48:02.232Z,1007.05
2023-03-22T01:49:02.310Z,1007.05
2023-03-22T01:50:02.143Z,1007.03
2023-03-22T01:51:02.124Z,1007.00
2023-03-22T01:52:02.115Z,1007.01
2023-03-22T01:53:02.173Z,1007.03
2023-03-22T01:54:02.109Z,1006.99
2023-03-22T01:55:02.086Z,1006.97
2023-03-22T01:56:02.086Z,1007.02
2023-03-22T01:57:02.071Z,1006.98
2023-03-22T01:58:02.069Z,1007.02
2023-03-22T01:59:02.056Z,1007.02
2023-03-22T02:00:02.063Z,1006.98
2023-03-22T02:01:02.096Z,1007.03
2023-03-22T02:02:02.031Z,1007.10
2023-03-22T02:03:02.123Z,1007.12
2023-03-22T02:04:02.017Z,1007.12
2023-03-22T02:05:02.011Z,1007.09
2023-03-22T02:06:02.024Z,1007.05
2023-03-22T02:07:01.989Z,1007.00
2023-03-22T02:08:01.997Z,1007.04
2023-03-22T02:09:01.973Z,1007.11
2023-03-22T02:10:01.964Z,1007.04
2023-03-22T02:11:01.956Z,1007.05
2023-03-22T02:12:01.947Z,1007.06
2023-03-22T02:13:01.942Z,1007.01
2023-03-22T02:14:01.931Z,1006.99
2023-03-22T02:15:01.925Z,1006.99
2023-03-22T02:16:01.967Z,1006.95
2023-03-22T02:17:01.911Z,1006.96
2023-03-22T02:18:01.901Z,1006.98
2023-03-22T02:19:01.886Z,1006.99
2023-03-22T02:20:01.881Z,1006.99
2023-03-22T02:21:02.560Z,1006.94
2023-03-22T02:22:01.875Z,1006.90
2023-03-22T02:23:01.870Z,1006.92
2023-03-22T02:24:01.854Z,1006.87
2023-03-22T02:25:01.844Z,1006.86
2023-03-22T02:26:01.830Z,1006.89
2023-03-22T02:27:01.828Z,1006.87
2023-03-22T02:28:01.812Z,1006.89
2023-03-22T02:29:01.811Z,1006.91
2023-03-22T02:30:01.796Z,1006.91
2023-03-22T02:31:01.843Z,1006.94
2023-03-22T02:32:01.780Z,1006.91
2023-03-22T02:33:01.796Z,1006.91
2023-03-22T02:34:01.938Z,1006.85
2023-03-22T02:35:01.756Z,1006.86
2023-03-22T02:36:01.746Z,1006.88
2023-03-22T02:37:01.754Z,1006.85
2023-03-22T02:38:01.730Z,1006.85
2023-03-22T02:39:01.732Z,1006.84
2023-03-22T02:40:01.713Z,1006.78
2023-03-22T02:41:01.709Z,1006.79
2023-03-22T02:42:01.695Z,1006.78
2023-03-22T02:43:01.686Z,1006.77
2023-03-22T02:44:01.678Z,1006.76
2023-03-22T02:45:01.683Z,1006.74
2023-03-22T02:46:01.660Z,1006.73
2023-03-22T02:47:01.652Z,1006.76
2023-03-22T02:48:01.697Z,1006.75
2023-03-22T02:49:01.626Z,1006.75
2023-03-22T02:50:01.688Z,1006.78
2023-03-22T02:51:01.623Z,1006.80
2023-03-22T02:52:01.645Z,1006.79
2023-03-22T02:53:01.603Z,1006.77
2023-03-22T02:54:01.599Z,1006.76
2023-03-22T02:55:01.589Z,1006.73
2023-03-22T02:56:01.604Z,1006.67
2023-03-22T02:57:01.564Z,1006.64
2023-03-22T02:58:01.559Z,1006.66
2023-03-22T02:59:01.617Z,1006.71
2023-03-22T03:00:01.551Z,1006.69
2023-03-22T03:01:01.532Z,1006.72
2023-03-22T03:02:01.571Z,1006.70
2023-03-22T03:03:01.515Z,1006.66
2023-03-22T03:04:01.510Z,1006.66
2023-03-22T03:05:01.503Z,1006.70
2023-03-22T03:06:01.499Z,1006.68
2023-03-22T03:07:01.482Z,1006.70
2023-03-22T03:08:01.498Z,1006.68
2023-03-22T03:09:01.567Z,1006.70
2023-03-22T03:10:01.458Z,1006.71
2023-03-22T03:11:01.473Z,1006.66
2023-03-22T03:12:01.441Z,1006.65
2023-03-22T03:13:01.435Z,1006.63
2023-03-22T03:14:01.579Z,1006.63
2023-03-22T03:15:01.418Z,1006.61
2023-03-22T03:16:01.437Z,1006.64
2023-03-22T03:17:01.400Z,1006.64
2023-03-22T03:18:01.390Z,1006.66
2023-03-22T03:19:01.502Z,1006.68
2023-03-22T03:20:01.374Z,1006.65
2023-03-22T03:21:01.365Z,1006.63
2023-03-22T03:22:01.358Z,1006.64
2023-03-22T03:23:01.356Z,1006.69
2023-03-22T03:24:01.498Z,1006.71
2023-03-22T03:25:01.336Z,1006.76
2023-03-22T03:26:01.320Z,1006.76
2023-03-22T03:27:01.319Z,1006.76
2023-03-22T03:28:01.308Z,1006.80
2023-03-22T03:29:01.366Z,1006.85
2023-03-22T03:30:01.288Z,1006.80
2023-03-22T03:31:01.289Z,1006.85
2023-03-22T03:32:01.269Z,1006.87
2023-03-22T03:33:01.262Z,1006.81
2023-03-22T03:34:01.252Z,1006.85
2023-03-22T03:35:01.242Z,1006.87
2023-03-22T03:36:01.248Z,1006.82
2023-03-22T03:37:01.226Z,1006.80
2023-03-22T03:38:01.219Z,1006.78
2023-03-22T03:39:01.235Z,1006.80
2023-03-22T03:40:01.202Z,1006.79
2023-03-22T03:41:01.192Z,1006.79
2023-03-22T03:42:01.193Z,1006.79
2023-03-22T03:43:01.173Z,1006.79
2023-03-22T03:44:01.279Z,1006.79
2023-03-22T03:45:01.159Z,1006.76
2023-03-22T03:46:01.178Z,1006.76
2023-03-22T03:47:01.149Z,1006.75
2023-03-22T03:48:01.173Z,1006.73
2023-03-22T03:49:01.219Z,1006.73
2023-03-22T03:50:01.113Z,1006.68
2023-03-22T03:51:01.105Z,1006.67
2023-03-22T03:52:01.098Z,1006.69
2023-03-22T03:53:01.091Z,1006.73
2023-03-22T03:54:01.178Z,1006.71
2023-03-22T03:55:01.079Z,1006.71
2023-03-22T03:56:01.063Z,1006.72
2023-03-22T03:57:03.426Z,1006.72
2023-03-22T03:58:01.045Z,1006.72
2023-03-22T03:59:01.141Z,1006.73
2023-03-22T04:00:01.039Z,1006.69
2023-03-22T04:01:01.018Z,1006.66
2023-03-22T04:02:01.039Z,1006.68
2023-03-22T04:03:01.011Z,1006.68
2023-03-22T04:04:01.079Z,1006.67
2023-03-22T04:05:00.986Z,1006.69
2023-03-22T04:06:00.977Z,1006.71
2023-03-22T04:07:00.975Z,1006.74
2023-03-22T04:08:00.964Z,1006.68
2023-03-22T04:09:01.031Z,1006.65
2023-03-22T04:10:00.985Z,1006.68
2023-03-22T04:11:00.932Z,1006.69
2023-03-22T04:12:00.925Z,1006.71
2023-03-22T04:13:00.918Z,1006.67
2023-03-22T04:14:00.957Z,1006.70
2023-03-22T04:15:00.894Z,1006.67
2023-03-22T04:16:00.898Z,1006.70
2023-03-22T04:17:00.949Z,1006.70
2023-03-22T04:18:00.929Z,1006.72
2023-03-22T04:19:00.904Z,1006.74
2023-03-22T04:20:00.859Z,1006.71
2023-03-22T04:21:00.857Z,1006.73
2023-03-22T04:22:00.841Z,1006.72
2023-03-22T04:23:00.832Z,1006.69
2023-03-22T04:24:00.861Z,1006.69
2023-03-22T04:25:00.816Z,1006.75
2023-03-22T04:26:00.806Z,1006.68
2023-03-22T04:27:00.800Z,1006.74
2023-03-22T04:28:00.790Z,1006.66
2023-03-22T04:29:00.840Z,1006.70
2023-03-22T04:30:00.778Z,1006.70
2023-03-22T04:31:00.813Z,1006.66
2023-03-22T04:32:00.787Z,1006.66
2023-03-22T04:33:00.748Z,1006.65
2023-03-22T04:34:00.774Z,1006.65
2023-03-22T04:35:00.734Z,1006.68
2023-03-22T04:36:02.927Z,1006.66
2023-03-22T04:37:00.710Z,1006.64
2023-03-22T04:38:00.702Z,1006.66
2023-03-22T04:39:00.771Z,1006.62
2023-03-22T04:40:00.702Z,1006.63
2023-03-22T04:41:00.678Z,1006.61
2023-03-22T04:42:00.673Z,1006.57
2023-03-22T04:43:00.660Z,1006.62
2023-03-22T04:44:00.652Z,1006.60
2023-03-22T04:45:00.644Z,1006.57
2023-03-22T04:46:00.669Z,1006.58
2023-03-22T04:47:00.629Z,1006.55
2023-03-22T04:48:00.650Z,1006.56
2023-03-22T04:49:00.652Z,1006.55
2023-03-22T04:50:00.609Z,1006.54
2023-03-22T04:51:00.588Z,1006.56
2023-03-22T04:52:00.584Z,1006.56
2023-03-22T04:53:00.572Z,1006.57
2023-03-22T04:54:00.629Z,1006.56
2023-03-22T04:55:00.571Z,1006.54
2023-03-22T04:56:00.543Z,1006.52
2023-03-22T04:57:00.536Z,1006.49
2023-03-22T04:58:00.535Z,1006.45
2023-03-22T04:59:00.669Z,1006.45
2023-03-22T05:00:00.513Z,1006.44
2023-03-22T05:01:00.502Z,1006.44
2023-03-22T05:02:00.564Z,1006.42
2023-03-22T05:03:00.518Z,1006.42
2023-03-22T05:04:00.570Z,1006.42
2023-03-22T05:05:00.468Z,1006.39
2023-03-22T05:06:00.464Z,1006.43
2023-03-22T05:07:00.455Z,1006.43
2023-03-22T05:08:00.453Z,1006.39
2023-03-22T05:09:00.453Z,1006.41
2023-03-22T05:10:00.426Z,1006.37
2023-03-22T05:11:00.420Z,1006.38
2023-03-22T05:12:00.426Z,1006.40
2023-03-22T05:13:00.400Z,1006.41
2023-03-22T05:14:00.411Z,1006.39
2023-03-22T05:15:00.380Z,1006.41
2023-03-22T05:16:00.408Z,1006.44
2023-03-22T05:17:00.367Z,1006.42
2023-03-22T05:18:00.357Z,1006.42
2023-03-22T05:19:00.489Z,1006.37
2023-03-22T05:20:00.345Z,1006.38
2023-03-22T05:21:00.331Z,1006.38
2023-03-22T05:22:00.320Z,1006.39
2023-03-22T05:23:00.313Z,1006.35
2023-03-22T05:24:00.308Z,1006.35
2023-03-22T05:25:00.301Z,1006.34
2023-03-22T05:26:00.288Z,1006.34
2023-03-22T05:27:00.279Z,1006.32
2023-03-22T05:28:00.273Z,1006.33
2023-03-22T05:29:00.259Z,1006.30
2023-03-22T05:30:00.253Z,1006.29
2023-03-22T05:31:00.258Z,1006.30
2023-03-22T05:32:00.236Z,1006.31
2023-03-22T05:33:00.231Z,1006.29
2023-03-22T05:34:00.287Z,1006.33
2023-03-22T05:35:00.207Z,1006.31
2023-03-22T05:36:00.245Z,1006.28
2023-03-22T05:37:00.193Z,1006.26
2023-03-22T05:38:00.208Z,1006.26
2023-03-22T05:39:00.226Z,1006.32
2023-03-22T05:40:00.165Z,1006.28
2023-03-22T05:41:00.159Z,1006.28
2023-03-22T05:42:00.178Z,1006.32
2023-03-22T05:43:00.142Z,1006.35
2023-03-22T05:44:00.217Z,1006.37
2023-03-22T05:45:00.133Z,1006.36
2023-03-22T05:46:00.173Z,1006.39
2023-03-22T05:47:00.174Z,1006.34
2023-03-22T05:48:00.154Z,1006.33
2023-03-22T05:49:00.091Z,1006.33
2023-03-22T05:50:00.102Z,1006.32
2023-03-22T05:51:00.109Z,1006.33
2023-03-22T05:52:00.108Z,1006.29
2023-03-22T05:53:00.079Z,1006.31
2023-03-22T05:54:00.094Z,1006.30
2023-03-22T05:55:00.039Z,1006.26
2023-03-22T05:56:00.038Z,1006.28
2023-03-22T05:57:00.026Z,1006.30
2023-03-22T05:58:00.014Z,1006.29
2023-03-22T05:59:00.008Z,1006.30
2023-03-22T06:00:00.002Z,1006.27
2023-03-22T06:00:59.990Z,1006.28
2023-03-22T06:02:00.039Z,1006.23
2023-03-22T06:02:59.990Z,1006.25
2023-03-22T06:03:59.965Z,1006.25
2023-03-22T06:04:59.954Z,1006.25
2023-03-22T06:05:59.950Z,1006.26
2023-03-22T06:06:59.941Z,1006.26
2023-03-22T06:07:59.929Z,1006.26
2023-03-22T06:09:14.143Z,1006.25
2023-03-22T06:09:59.911Z,1006.23
2023-03-22T06:10:59.903Z,1006.24
2023-03-22T06:11:59.896Z,1006.25
2023-03-22T06:12:59.918Z,1006.24
2023-03-22T06:13:59.882Z,1006.21
2023-03-22T06:14:59.870Z,1006.22
2023-03-22T06:15:59.861Z,1006.21
2023-03-22T06:16:59.852Z,1006.20
2023-03-22T06:17:59.848Z,1006.23
2023-03-22T06:18:59.836Z,1006.23
2023-03-22T06:19:59.831Z,1006.22
2023-03-22T06:20:59.826Z,1006.23
2023-03-22T06:21:59.809Z,1006.25
2023-03-22T06:22:59.806Z,1006.28
2023-03-22T06:23:59.805Z,1006.25
2023-03-22T06:24:59.786Z,1006.23
2023-03-22T06:25:59.787Z,1006.25
2023-03-22T06:26:59.767Z,1006.25
2023-03-22T06:27:59.766Z,1006.25
2023-03-22T06:28:59.756Z,1006.25
2023-03-22T06:29:59.740Z,1006.25
2023-03-22T06:30:59.759Z,1006.26
2023-03-22T06:31:59.719Z,1006.26
2023-03-22T06:32:59.709Z,1006.25
2023-03-22T06:33:59.697Z,1006.26
2023-03-22T06:34:59.694Z,1006.26
2023-03-22T06:35:59.682Z,1006.27
2023-03-22T06:36:59.670Z,1006.30
2023-03-22T06:37:59.663Z,1006.31
2023-03-22T06:38:59.657Z,1006.31
2023-03-22T06:39:59.646Z,1006.31
2023-03-22T06:40:59.638Z,1006.32
2023-03-22T06:41:59.627Z,1006.28
2023-03-22T06:43:03.529Z,1006.29
2023-03-22T06:43:59.610Z,1006.31
2023-03-22T06:44:59.611Z,1006.30
2023-03-22T06:45:59.640Z,1006.33
2023-03-22T06:46:59.591Z,1006.37
2023-03-22T06:47:59.609Z,1006.32
2023-03-22T06:48:59.570Z,1006.39
2023-03-22T06:49:59.558Z,1006.42
2023-03-22T06:50:59.570Z,1006.39
2023-03-22T06:51:59.543Z,1006.40
2023-03-22T06:52:59.535Z,1006.40
2023-03-22T06:53:59.522Z,1006.39
2023-03-22T06:54:59.523Z,1006.40
2023-03-22T06:55:59.530Z,1006.40
2023-03-22T06:56:59.501Z,1006.36
2023-03-22T06:57:59.495Z,1006.39
2023-03-22T06:58:59.483Z,1006.42
2023-03-22T06:59:59.474Z,1006.41
2023-03-22T07:00:59.539Z,1006.38
2023-03-22T07:01:59.450Z,1006.37
2023-03-22T07:02:59.466Z,1006.32
2023-03-22T07:03:59.505Z,1006.33
2023-03-22T07:04:59.437Z,1006.31
2023-03-22T07:05:59.431Z,1006.33
2023-03-22T07:06:59.427Z,1006.31
2023-03-22T07:07:59.428Z,1006.33
2023-03-22T07:08:59.416Z,1006.36
2023-03-22T07:09:59.390Z,1006.38
2023-03-22T07:10:59.386Z,1006.32
2023-03-22T07:11:59.446Z,1006.37
2023-03-22T07:12:59.372Z,1006.40
2023-03-22T07:13:59.400Z,1006.35
2023-03-22T07:14:59.365Z,1006.37
2023-03-22T07:15:59.399Z,1006.35
2023-03-22T07:16:59.338Z,1006.36
2023-03-22T07:17:59.329Z,1006.37
2023-03-22T07:18:59.429Z,1006.38
2023-03-22T07:19:59.316Z,1006.38
2023-03-22T07:20:59.313Z,1006.35
2023-03-22T07:21:59.296Z,1006.35
2023-03-22T07:22:59.287Z,1006.33
2023-03-22T07:23:59.280Z,1006.35
2023-03-22T07:25:01.579Z,1006.31
2023-03-22T07:25:59.263Z,1006.35
2023-03-22T07:26:59.262Z,1006.27
2023-03-22T07:27:59.259Z,1006.29
2023-03-22T07:28:59.245Z,1006.29
2023-03-22T07:29:59.235Z,1006.35
2023-03-22T07:30:59.223Z,1006.34
2023-03-22T07:31:59.361Z,1006.34
2023-03-22T07:32:59.215Z,1006.30
2023-03-22T07:33:59.202Z,1006.30
2023-03-22T07:34:59.199Z,1006.30
2023-03-22T07:35:59.215Z,1006.25
2023-03-22T07:36:59.191Z,1006.30
2023-03-22T07:37:59.170Z,1006.25
2023-03-22T07:38:59.168Z,1006.19
2023-03-22T07:39:59.155Z,1006.16
2023-03-22T07:40:59.149Z,1006.16
2023-03-22T07:41:59.145Z,1006.18
2023-03-22T07:42:59.135Z,1006.16
2023-03-22T07:44:15.047Z,1006.18
2023-03-22T07:44:59.125Z,1006.15
2023-03-22T07:45:59.112Z,1006.11
2023-03-22T07:46:59.218Z,1006.10
2023-03-22T07:47:59.493Z,1006.11
2023-03-22T07:48:59.093Z,1006.14
2023-03-22T07:49:59.088Z,1006.12
2023-03-22T07:50:59.087Z,1006.12
2023-03-22T07:51:59.084Z,1006.06
2023-03-22T07:52:59.067Z,1006.09
2023-03-22T07:53:59.054Z,1006.08
2023-03-22T07:54:59.048Z,1006.12
2023-03-22T07:55:59.047Z,1006.10
2023-03-22T07:56:59.037Z,1006.14
2023-03-22T07:57:59.023Z,1006.14
2023-03-22T07:58:59.105Z,1006.14
2023-03-22T07:59:59.020Z,1006.18
2023-03-22T08:00:59.003Z,1006.10
2023-03-22T08:01:59.069Z,1006.13
2023-03-22T08:02:59.053Z,1006.10
2023-03-22T08:03:58.986Z,1006.10
2023-03-22T08:04:58.978Z,1006.11
2023-03-22T08:05:58.971Z,1006.10
2023-03-22T08:06:58.965Z,1006.09
2023-03-22T08:07:58.958Z,1006.08
2023-03-22T08:08:58.947Z,1006.06
2023-03-22T08:09:59.335Z,1006.06
2023-03-22T08:10:59.102Z,1006.03
2023-03-22T08:11:58.934Z,1005.98
2023-03-22T08:12:58.921Z,1005.99
2023-03-22T08:13:58.926Z,1005.97
2023-03-22T08:14:58.904Z,1005.99
2023-03-22T08:15:58.902Z,1005.97
2023-03-22T08:16:58.896Z,1006.02
2023-03-22T08:17:58.882Z,1006.00
2023-03-22T08:18:58.875Z,1006.02
2023-03-22T08:19:58.882Z,1006.03
2023-03-22T08:20:58.902Z,1006.04
2023-03-22T08:21:58.856Z,1006.07
2023-03-22T08:22:58.856Z,1006.09
2023-03-22T08:23:58.842Z,1006.04
2023-03-22T08:24:58.838Z,1006.04
2023-03-22T08:25:58.833Z,1006.05
2023-03-22T08:26:58.825Z,1006.02
2023-03-22T08:27:58.824Z,1006.04
2023-03-22T08:28:58.810Z,1006.03
2023-03-22T08:29:58.800Z,1006.00
2023-03-22T08:30:58.795Z,1006.01
2023-03-22T08:31:58.832Z,1006.00
2023-03-22T08:32:58.789Z,1006.00
2023-03-22T08:33:58.782Z,1005.96
2023-03-22T08:34:58.773Z,1006.00
2023-03-22T08:35:58.766Z,1005.95
2023-03-22T08:36:58.758Z,1005.90
2023-03-22T08:37:58.769Z,1005.87
2023-03-22T08:38:58.747Z,1005.89
2023-03-22T08:39:58.822Z,1005.90
2023-03-22T08:40:58.739Z,1005.88
2023-03-22T08:41:58.728Z,1005.89
2023-03-22T08:42:58.724Z,1005.86
2023-03-22T08:43:58.734Z,1005.90
2023-03-22T08:44:58.714Z,1005.88
2023-03-22T08:45:58.776Z,1005.92
2023-03-22T08:46:58.706Z,1005.89
2023-03-22T08:47:58.735Z,1005.87
2023-03-22T08:48:58.686Z,1005.85
2023-03-22T08:49:58.677Z,1005.83
2023-03-22T08:50:58.672Z,1005.78
2023-03-22T08:51:58.712Z,1005.76
2023-03-22T08:52:58.660Z,1005.75
2023-03-22T08:53:58.659Z,1005.71
2023-03-22T08:54:58.646Z,1005.71
2023-03-22T08:55:58.653Z,1005.70
2023-03-22T08:56:58.633Z,1005.67
2023-03-22T08:57:58.646Z,1005.68
2023-03-22T08:58:58.621Z,1005.67
2023-03-22T08:59:58.624Z,1005.69
2023-03-22T09:00:58.702Z,1005.69
2023-03-22T09:01:58.758Z,1005.65
2023-03-22T09:02:58.631Z,1005.68
2023-03-22T09:03:58.630Z,1005.67
2023-03-22T09:04:58.591Z,1005.69
2023-03-22T09:05:58.582Z,1005.64
2023-03-22T09:06:58.586Z,1005.65
2023-03-22T09:08:05.886Z,1005.64
2023-03-22T09:08:58.567Z,1005.67
2023-03-22T09:09:58.561Z,1005.66
2023-03-22T09:10:58.553Z,1005.65
2023-03-22T09:11:58.550Z,1005.65
2023-03-22T09:12:58.542Z,1005.62
2023-03-22T09:13:58.536Z,1005.61
2023-03-22T09:14:58.530Z,1005.60
2023-03-22T09:15:58.590Z,1005.54
2023-03-22T09:16:58.518Z,1005.55
2023-03-22T09:17:58.512Z,1005.54
2023-03-22T09:18:58.506Z,1005.56
2023-03-22T09:20:11.612Z,1005.52
2023-03-22T09:20:58.500Z,1005.50
2023-03-22T09:21:58.497Z,1005.51
2023-03-22T09:22:58.489Z,1005.53
2023-03-22T09:23:58.482Z,1005.50
2023-03-22T09:24:58.480Z,1005.53
2023-03-22T09:25:58.468Z,1005.53
2023-03-22T09:26:58.461Z,1005.55
2023-03-22T09:27:58.455Z,1005.53
2023-03-22T09:28:58.453Z,1005.53
2023-03-22T09:29:58.449Z,1005.54
2023-03-22T09:30:58.450Z,1005.56
2023-03-22T09:31:58.434Z,1005.55
2023-03-22T09:32:58.429Z,1005.55
2023-03-22T09:33:58.421Z,1005.51
2023-03-22T09:34:58.423Z,1005.51
2023-03-22T09:35:58.428Z,1005.47
2023-03-22T09:36:58.646Z,1005.51
2023-03-22T09:37:58.401Z,1005.49
2023-03-22T09:38:58.396Z,1005.50
2023-03-22T09:39:58.395Z,1005.49
2023-03-22T09:40:58.387Z,1005.52
2023-03-22T09:41:58.416Z,1005.51
2023-03-22T09:42:58.383Z,1005.50
2023-03-22T09:43:58.371Z,1005.52
2023-03-22T09:44:58.366Z,1005.50
2023-03-22T09:45:58.383Z,1005.52
2023-03-22T09:46:58.356Z,1005.48
2023-03-22T09:47:58.375Z,1005.48
2023-03-22T09:48:58.346Z,1005.47
2023-03-22T09:49:58.344Z,1005.43
2023-03-22T09:50:58.337Z,1005.41
2023-03-22T09:51:58.370Z,1005.39
2023-03-22T09:52:58.331Z,1005.40
2023-03-22T09:53:58.320Z,1005.38
2023-03-22T09:54:58.317Z,1005.39
2023-03-22T09:55:58.314Z,1005.37
2023-03-22T09:56:58.308Z,1005.35
2023-03-22T09:57:58.304Z,1005.32
2023-03-22T09:58:58.313Z,1005.32
2023-03-22T09:59:58.294Z,1005.33
2023-03-22T10:00:58.361Z,1005.27
2023-03-22T10:01:58.546Z,1005.30
2023-03-22T10:02:58.281Z,1005.35
2023-03-22T10:03:58.298Z,1005.39
2023-03-22T10:04:58.267Z,1005.37
2023-03-22T10:05:58.270Z,1005.33
2023-03-22T10:06:58.258Z,1005.32
2023-03-22T10:07:58.261Z,1005.32
2023-03-22T10:08:58.252Z,1005.28
2023-03-22T10:09:58.242Z,1005.24
2023-03-22T10:10:58.241Z,1005.26
2023-03-22T10:11:58.235Z,1005.25
2023-03-22T10:12:58.232Z,1005.22
2023-03-22T10:13:58.225Z,1005.25
2023-03-22T10:14:58.220Z,1005.25
2023-03-22T10:15:58.237Z,1005.24
2023-03-22T10:16:58.213Z,1005.22
2023-03-22T10:17:58.206Z,1005.20
2023-03-22T10:18:58.207Z,1005.23
2023-03-22T10:19:58.203Z,1005.21
2023-03-22T10:20:58.195Z,1005.22
2023-03-22T10:21:58.188Z,1005.16
2023-03-22T10:22:58.183Z,1005.11
2023-03-22T10:23:58.180Z,1005.10
2023-03-22T10:24:58.175Z,1005.03
2023-03-22T10:25:58.168Z,1005.03
2023-03-22T10:26:58.167Z,1005.02
2023-03-22T10:27:58.992Z,1004.97
2023-03-22T10:28:58.158Z,1004.95
2023-03-22T10:29:58.153Z,1004.90
2023-03-22T10:30:58.209Z,1004.85
2023-03-22T10:31:58.143Z,1004.81
2023-03-22T10:32:58.448Z,1004.83
2023-03-22T10:33:58.135Z,1004.78
2023-03-22T10:34:58.134Z,1004.75
2023-03-22T10:35:58.203Z,1004.71
2023-03-22T10:36:58.126Z,1004.68
2023-03-22T10:37:58.114Z,1004.65
2023-03-22T10:38:58.117Z,1004.64
2023-03-22T10:39:58.111Z,1004.64
2023-03-22T10:40:58.111Z,1004.60
2023-03-22T10:41:58.259Z,1004.64
2023-03-22T10:42:58.097Z,1004.61
2023-03-22T10:43:58.097Z,1004.62
2023-03-22T10:44:58.089Z,1004.63
2023-03-22T10:45:58.085Z,1004.61
2023-03-22T10:46:58.157Z,1004.63
2023-03-22T10:47:58.290Z,1004.58
2023-03-22T10:48:58.077Z,1004.58
2023-03-22T10:49:58.074Z,1004.55
2023-03-22T10:50:58.075Z,1004.49
2023-03-22T10:51:58.071Z,1004.49
2023-03-22T10:52:58.065Z,1004.52
2023-03-22T10:53:58.059Z,1004.48
2023-03-22T10:55:02.320Z,1004.48
2023-03-22T10:55:58.055Z,1004.52
2023-03-22T10:56:58.052Z,1004.48
2023-03-22T10:57:58.043Z,1004.47
2023-03-22T10:58:58.038Z,1004.49
2023-03-22T10:59:58.048Z,1004.51
2023-03-22T11:00:58.140Z,1004.53
2023-03-22T11:01:58.211Z,1004.54
2023-03-22T11:02:58.053Z,1004.52
2023-03-22T11:03:58.019Z,1004.52
2023-03-22T11:04:58.017Z,1004.53
2023-03-22T11:05:58.010Z,1004.54
2023-03-22T11:06:58.004Z,1004.54
2023-03-22T11:07:58.007Z,1004.46
2023-03-22T11:08:57.996Z,1004.46
2023-03-22T11:09:57.993Z,1004.48
2023-03-22T11:10:58.014Z,1004.51
2023-03-22T11:11:58.000Z,1004.45
2023-03-22T11:12:58.017Z,1004.45
2023-03-22T11:13:57.975Z,1004.46
2023-03-22T11:14:57.975Z,1004.43
2023-03-22T11:15:57.996Z,1004.42
2023-03-22T11:16:57.994Z,1004.40
2023-03-22T11:17:57.960Z,1004.43
2023-03-22T11:18:57.957Z,1004.41
2023-03-22T11:19:58.006Z,1004.40
2023-03-22T11:20:57.951Z,1004.37
2023-03-22T11:21:57.942Z,1004.41
2023-03-22T11:22:57.940Z,1004.35
2023-03-22T11:23:57.935Z,1004.42
2023-03-22T11:24:57.942Z,1004.41
2023-03-22T11:25:57.938Z,1004.35
2023-03-22T11:26:57.930Z,1004.42
2023-03-22T11:27:57.928Z,1004.40
2023-03-22T11:28:57.916Z,1004.38
2023-03-22T11:29:57.926Z,1004.40
2023-03-22T11:30:57.917Z,1004.39
2023-03-22T11:31:57.964Z,1004.43
2023-03-22T11:32:57.956Z,1004.41
2023-03-22T11:33:57.907Z,1004.41
2023-03-22T11:34:57.897Z,1004.40
2023-03-22T11:35:57.995Z,1004.40
2023-03-22T11:36:57.905Z,1004.38
2023-03-22T11:37:57.891Z,1004.35
2023-03-22T11:38:57.881Z,1004.32
2023-03-22T11:39:57.877Z,1004.33
2023-03-22T11:40:57.875Z,1004.33
2023-03-22T11:41:57.876Z,1004.34
2023-03-22T11:42:57.869Z,1004.32
2023-03-22T11:43:57.866Z,1004.25
2023-03-22T11:44:57.861Z,1004.25
2023-03-22T11:45:57.902Z,1004.25
2023-03-22T11:46:57.878Z,1004.24
2023-03-22T11:47:57.901Z,1004.20
2023-03-22T11:49:00.789Z,1004.20
2023-03-22T11:49:57.842Z,1004.16
2023-03-22T11:50:57.839Z,1004.23
2023-03-22T11:51:57.833Z,1004.11
2023-03-22T11:52:57.833Z,1004.19
2023-03-22T11:53:57.829Z,1004.14
2023-03-22T11:54:57.827Z,1004.15
2023-03-22T11:55:57.828Z,1004.15
2023-03-22T11:56:57.821Z,1004.14
2023-03-22T11:57:57.817Z,1004.09
2023-03-22T11:58:57.811Z,1004.10
2023-03-22T11:59:57.812Z,1004.02
2023-03-22T12:00:57.802Z,1004.00
2023-03-22T12:01:57.798Z,1004.01
2023-03-22T12:02:57.862Z,1004.04
2023-03-22T12:03:57.924Z,1003.96
2023-03-22T12:04:57.838Z,1003.93